Terminal Aerodrome Forecast
Issued by NWS

Home | Current Version | Previous Version | Text Only | Print | Product List | Glossary On
Versions: 1 2 3 4 5 6 7 8 9 10 11 12 13 14 15 16
000
FTPA31 PHFO 231122
TAFHMK
TAF
PHMK 231122Z 2312/2412 04012G20KT P6SM VCSH SCT025 BKN040
      TEMPO 2312/2316 5SM -SHRA BR BKN025
     FM232000 05017G25KT P6SM VCSH FEW025 SCT040
     FM240000 05017G25KT P6SM VCSH SCT025 BKN040
     FM240500 05010G18KT P6SM VCSH SCT025 BKN040=

USA.gov is the U.S. government's official web portal to all federal, state and local government web resources and services.